Time;durP1;ratioP1;P1;durP2;ratioP2;P2;SDS_P1;SDS_P2;PMS_P1;PMS_P2;Temp;Humidity;BMP_temperature;BMP_pressure;BME280_temperature;BME280_humidity;BME280_pressure;Samples;Min_cycle;Max_cycle;Signal;HPM_P1;HPM_P2
2022/06/18 00:00:19;;;;;;;2.90;2.42;;;22.40;99.90;;;;;;5096089;28;20044;-80
2022/06/18 00:02:46;;;;;;;6.07;2.65;;;22.40;99.90;;;;;;5093263;28;20159;-78
2022/06/18 00:05:16;;;;;;;6.45;2.30;;;22.30;99.90;;;;;;5095777;28;20116;-80
2022/06/18 00:07:47;;;;;;;4.95;2.53;;;22.30;99.90;;;;;;5090287;28;20075;-80
2022/06/18 00:10:15;;;;;;;;;;;22.20;99.90;;;;;;5090779;28;20154;-80
2022/06/18 00:15:31;;;;;;;5.15;2.65;;;22.20;99.90;;;;;;5087359;28;20044;-78
2022/06/18 00:17:57;;;;;;;3.88;2.30;;;22.20;99.90;;;;;;5087165;28;20103;-80
2022/06/18 00:20:34;;;;;;;3.05;2.30;;;22.20;99.90;;;;;;5083198;28;20532;-80
2022/06/18 00:23:02;;;;;;;5.00;2.80;;;22.20;99.90;;;;;;5089827;28;20436;-79
2022/06/18 00:25:35;;;;;;;3.40;2.50;;;22.10;99.90;;;;;;5089360;28;20169;-80
2022/06/18 00:28:23;;;;;;;4.72;2.70;;;22.00;99.90;;;;;;5092269;28;20378;-80
2022/06/18 00:30:51;;;;;;;2.53;2.30;;;22.00;99.90;;;;;;5088001;28;20067;-79
2022/06/18 00:33:18;;;;;;;5.13;2.50;;;22.00;99.90;;;;;;5088325;28;20102;-79
2022/06/18 00:35:47;;;;;;;2.92;2.38;;;22.00;99.90;;;;;;5096057;28;20044;-81
2022/06/18 00:38:23;;;;;;;4.20;2.53;;;22.00;99.90;;;;;;5093962;28;20048;-79
2022/06/18 00:40:51;;;;;;;4.28;2.60;;;21.90;99.90;;;;;;5091251;28;20070;-78
2022/06/18 00:43:28;;;;;;;6.03;2.88;;;21.90;99.90;;;;;;5089264;28;20421;-78
2022/06/18 00:46:04;;;;;;;3.10;2.10;;;21.90;99.90;;;;;;5091485;28;20386;-78
2022/06/18 00:48:53;;;;;;;4.55;2.78;;;21.90;99.90;;;;;;5089279;28;20052;-78
2022/06/18 00:51:25;;;;;;;5.10;2.50;;;21.90;99.90;;;;;;5087580;28;20053;-78
2022/06/18 00:54:00;;;;;;;4.32;2.40;;;21.90;99.90;;;;;;5086768;28;20058;-79
2022/06/18 00:56:56;;;;;;;2.88;2.50;;;21.90;99.90;;;;;;5089185;28;20052;-78
2022/06/18 00:59:34;;;;;;;2.67;2.45;;;21.90;99.90;;;;;;5087086;28;20075;-80
2022/06/18 01:02:02;;;;;;;3.65;2.55;;;21.90;99.90;;;;;;5090252;28;20104;-77
2022/06/18 01:04:32;;;;;;;4.75;2.55;;;21.80;99.90;;;;;;5093969;28;20075;-79
2022/06/18 01:07:04;;;;;;;;;;;21.80;99.90;;;;;;5091503;28;20104;-78
2022/06/18 01:09:32;;;;;;;3.58;2.22;;;21.80;99.90;;;;;;5093602;28;19963;-79
2022/06/18 01:11:59;;;;;;;5.35;2.30;;;21.80;99.90;;;;;;5092868;28;20048;-79
2022/06/18 01:14:27;;;;;;;4.75;2.25;;;21.80;99.90;;;;;;5091417;28;20074;-81
2022/06/18 01:16:59;;;;;;;4.45;2.40;;;21.80;99.90;;;;;;5093230;28;20053;-79
2022/06/18 01:19:39;;;;;;;5.18;2.10;;;21.80;99.90;;;;;;5090554;28;20058;-79
2022/06/18 01:22:28;;;;;;;3.17;2.22;;;21.80;99.90;;;;;;5089092;28;20437;-77
2022/06/18 01:24:56;;;;;;;2.72;2.20;;;21.80;99.90;;;;;;5087664;28;20075;-78
2022/06/18 01:27:24;;;;;;;2.85;2.13;;;21.60;99.90;;;;;;5091064;28;20051;-80
2022/06/18 01:29:50;;;;;;;2.60;1.65;;;21.60;99.90;;;;;;5091723;28;20391;-79
2022/06/18 01:32:17;;;;;;;2.88;2.25;;;21.60;99.90;;;;;;5090358;28;20075;-77
2022/06/18 01:34:45;;;;;;;3.72;2.38;;;21.60;99.90;;;;;;5087743;28;20080;-79
2022/06/18 01:37:13;;;;;;;5.18;2.42;;;21.60;99.90;;;;;;5092524;28;20091;-79
2022/06/18 01:39:43;;;;;;;3.33;2.67;;;21.70;99.90;;;;;;5085185;28;20048;-79
2022/06/18 01:42:19;;;;;;;4.20;2.38;;;21.50;99.90;;;;;;5092395;28;20044;-79
2022/06/18 01:44:57;;;;;;;3.10;2.78;;;21.50;99.90;;;;;;5092316;28;20049;-79
2022/06/18 01:47:32;;;;;;;3.13;2.40;;;21.50;99.90;;;;;;5086645;28;20048;-79
2022/06/18 01:50:10;;;;;;;4.68;2.22;;;21.50;99.90;;;;;;5088549;28;20055;-79
2022/06/18 01:52:41;;;;;;;4.85;2.55;;;21.50;99.90;;;;;;5093523;28;20111;-79
2022/06/18 01:55:16;;;;;;;5.03;2.50;;;21.50;99.90;;;;;;5093100;28;20044;-80
2022/06/18 01:57:50;;;;;;;5.22;2.15;;;21.50;99.90;;;;;;5093532;28;20116;-78
2022/06/18 02:00:23;;;;;;;3.60;2.10;;;21.40;99.90;;;;;;5092822;28;20044;-79
2022/06/18 02:02:51;;;;;;;3.67;2.35;;;21.40;99.90;;;;;;5088662;28;20044;-80
2022/06/18 02:05:19;;;;;;;4.50;2.03;;;21.40;99.90;;;;;;5094138;28;20044;-81
2022/06/18 02:07:46;;;;;;;5.45;2.60;;;21.40;99.90;;;;;;5093013;28;20426;-81
2022/06/18 02:10:30;;;;;;;4.95;2.45;;;21.40;99.90;;;;;;5093382;28;20052;-80
2022/06/18 02:12:59;;;;;;;4.10;2.30;;;21.40;99.90;;;;;;5090166;28;20052;-79
2022/06/18 02:15:29;;;;;;;3.42;2.00;;;21.40;99.90;;;;;;5091728;28;20054;-80
2022/06/18 02:18:01;;;;;;;2.83;2.25;;;21.30;99.90;;;;;;5094132;28;20079;-82
2022/06/18 02:20:31;;;;;;;4.53;2.30;;;21.30;99.90;;;;;;5088961;28;20053;-80
2022/06/18 02:22:58;;;;;;;5.73;2.73;;;21.20;99.90;;;;;;5088570;28;20049;-81
2022/06/18 02:25:27;;;;;;;7.13;2.70;;;21.20;99.90;;;;;;5092042;28;20317;-80
2022/06/18 02:28:24;;;;;;;3.58;2.63;;;21.20;99.90;;;;;;5091089;28;20051;-80
2022/06/18 02:30:55;;;;;;;5.53;2.75;;;21.20;99.90;;;;;;5091754;28;20048;-80
2022/06/18 02:33:51;;;;;;;3.20;2.88;;;21.20;99.90;;;;;;5091101;28;20567;-79
2022/06/18 02:36:23;;;;;;;4.40;2.40;;;21.20;99.90;;;;;;5088677;28;20048;-80
2022/06/18 02:38:58;;;;;;;5.75;2.45;;;21.20;99.90;;;;;;5088355;28;20045;-80
2022/06/18 02:41:25;;;;;;;3.45;2.33;;;21.10;99.90;;;;;;5090939;28;20111;-81
2022/06/18 02:43:52;;;;;;;4.53;2.40;;;21.00;99.90;;;;;;5090235;28;20080;-80
2022/06/18 02:46:19;;;;;;;3.35;2.15;;;21.00;99.90;;;;;;5091884;28;20412;-79
2022/06/18 02:48:47;;;;;;;3.28;2.50;;;21.00;99.90;;;;;;5090442;28;20148;-80
2022/06/18 02:51:14;;;;;;;3.28;2.20;;;21.00;99.90;;;;;;5093703;28;20048;-81
2022/06/18 02:53:41;;;;;;;4.53;2.47;;;21.00;99.90;;;;;;5086831;28;20055;-80
2022/06/18 02:56:13;;;;;;;3.50;2.38;;;21.00;99.90;;;;;;5088231;28;20079;-80
2022/06/18 02:58:44;;;;;;;4.22;2.17;;;21.00;99.90;;;;;;5093281;28;20425;-80
2022/06/18 03:01:20;;;;;;;5.68;2.10;;;20.90;99.90;;;;;;5095996;28;20108;-80
2022/06/18 03:03:53;;;;;;;3.92;2.40;;;20.80;99.90;;;;;;5091015;28;20048;-79
2022/06/18 03:06:23;;;;;;;2.45;2.10;;;20.80;99.90;;;;;;5097996;28;20056;-78
2022/06/18 03:08:50;;;;;;;3.72;2.10;;;20.80;99.90;;;;;;5090959;28;20107;-80
2022/06/18 03:14:09;;;;;;;4.40;2.40;;;20.80;99.90;;;;;;5091969;28;20403;-81
2022/06/18 03:16:36;;;;;;;3.92;2.20;;;20.80;99.90;;;;;;5092864;28;20063;-79
2022/06/18 03:19:05;;;;;;;5.35;2.42;;;20.80;99.90;;;;;;5094203;28;20570;-81
2022/06/18 03:21:37;;;;;;;2.78;2.35;;;20.70;99.90;;;;;;5088808;28;20072;-81
2022/06/18 03:24:04;;;;;;;3.13;2.40;;;20.70;99.90;;;;;;5094642;28;20059;-80
2022/06/18 03:26:32;;;;;;;2.53;2.30;;;20.70;99.90;;;;;;5094010;28;20422;-80
2022/06/18 03:28:59;;;;;;;3.17;2.20;;;20.70;99.90;;;;;;5092262;28;20047;-80
2022/06/18 03:31:26;;;;;;;3.28;2.33;;;20.70;99.90;;;;;;5093635;28;20086;-78
2022/06/18 03:33:53;;;;;;;2.47;2.22;;;20.70;99.90;;;;;;5088833;28;20114;-80
2022/06/18 03:36:20;;;;;;;4.70;2.20;;;20.70;99.90;;;;;;5093084;28;20047;-80
2022/06/18 03:38:48;;;;;;;3.22;2.03;;;20.70;99.90;;;;;;5088644;28;20049;-81
2022/06/18 03:41:16;;;;;;;7.43;2.30;;;20.60;99.90;;;;;;5092393;28;20501;-80
2022/06/18 03:43:43;;;;;;;6.03;2.63;;;20.50;99.90;;;;;;5089731;28;20577;-81
2022/06/18 03:46:13;;;;;;;3.92;2.20;;;20.50;99.90;;;;;;5090220;28;20111;-80
2022/06/18 03:48:40;;;;;;;2.55;2.10;;;20.60;99.90;;;;;;5089772;28;20048;-79
2022/06/18 03:51:07;;;;;;;5.10;2.38;;;20.60;99.90;;;;;;5089549;28;20043;-80
2022/06/18 03:53:34;;;;;;;4.68;2.20;;;20.60;99.90;;;;;;5091630;28;20044;-79
2022/06/18 03:56:01;;;;;;;6.18;2.30;;;20.60;99.90;;;;;;5089053;28;20051;-80
2022/06/18 03:58:28;;;;;;;5.22;2.45;;;20.60;99.90;;;;;;5091560;28;20063;-81
2022/06/18 04:00:55;;;;;;;4.97;1.98;;;20.60;99.90;;;;;;5084004;28;20500;-77
2022/06/18 04:03:22;;;;;;;3.40;2.13;;;20.60;99.90;;;;;;5089067;28;20490;-80
2022/06/18 04:05:49;;;;;;;2.33;1.80;;;20.60;99.90;;;;;;5086644;28;20055;-79
2022/06/18 04:08:20;;;;;;;5.28;1.75;;;20.60;99.90;;;;;;5087753;28;20044;-77
2022/06/18 04:10:47;;;;;;;4.45;2.40;;;20.60;99.90;;;;;;5088253;28;20258;-79
2022/06/18 04:13:14;;;;;;;2.08;1.88;;;20.60;99.90;;;;;;5087242;28;20048;-78
2022/06/18 04:15:41;;;;;;;2.67;1.80;;;20.60;99.90;;;;;;5089238;28;20055;-79
2022/06/18 04:18:12;;;;;;;2.47;1.98;;;20.60;99.90;;;;;;5085829;28;20045;-77
2022/06/18 04:20:39;;;;;;;6.18;2.22;;;20.60;99.90;;;;;;5083389;28;20047;-80
2022/06/18 04:23:06;;;;;;;2.47;2.13;;;20.70;99.90;;;;;;5089553;28;20409;-80
2022/06/18 04:25:33;;;;;;;3.33;2.17;;;20.60;99.90;;;;;;5087928;28;20070;-79
2022/06/18 04:27:59;;;;;;;3.53;2.10;;;20.60;99.90;;;;;;5096930;28;20044;-77
2022/06/18 04:30:29;;;;;;;2.45;1.70;;;20.70;99.90;;;;;;5097864;28;20055;-78
2022/06/18 04:32:56;;;;;;;3.07;1.80;;;20.70;99.90;;;;;;5095158;28;20103;-80
2022/06/18 04:35:23;;;;;;;3.95;2.10;;;20.70;99.90;;;;;;5092536;28;20048;-80
2022/06/18 04:37:50;;;;;;;7.47;2.60;;;20.70;99.90;;;;;;5095802;28;20052;-80
2022/06/18 04:40:21;;;;;;;2.78;2.22;;;20.80;99.90;;;;;;5091795;28;20044;-80
2022/06/18 04:43:10;;;;;;;3.83;2.63;;;20.90;99.90;;;;;;5093720;28;20045;-80
2022/06/18 04:45:37;;;;;;;3.72;2.45;;;20.90;99.90;;;;;;5092867;28;20082;-80
2022/06/18 04:48:05;;;;;;;4.05;3.10;;;21.00;99.90;;;;;;5093070;28;20048;-79
2022/06/18 04:50:38;;;;;;;4.68;3.83;;;21.00;99.90;;;;;;5093513;28;20136;-80
2022/06/18 04:53:07;;;;;;;6.15;3.38;;;21.10;99.90;;;;;;5093957;28;20044;-79
2022/06/18 04:55:34;;;;;;;5.38;2.30;;;21.20;99.90;;;;;;5096212;28;20509;-81
2022/06/18 04:58:00;;;;;;;4.28;2.40;;;21.20;99.90;;;;;;5094282;28;20525;-81
2022/06/18 05:00:28;;;;;;;5.80;2.45;;;21.30;99.90;;;;;;5092519;28;20052;-81
2022/06/18 05:02:54;;;;;;;3.25;2.42;;;21.40;99.90;;;;;;5097015;28;20047;-81
2022/06/18 05:05:24;;;;;;;4.47;2.70;;;21.50;99.90;;;;;;5093278;28;20055;-80
2022/06/18 05:07:50;;;;;;;4.72;2.20;;;21.50;99.90;;;;;;5093532;28;20055;-79
2022/06/18 05:10:18;;;;;;;3.55;2.30;;;21.50;99.90;;;;;;5094170;28;20044;-79
2022/06/18 05:12:45;;;;;;;2.70;2.20;;;21.70;99.90;;;;;;5095473;28;20049;-80
2022/06/18 05:15:12;;;;;;;3.35;2.30;;;21.70;99.90;;;;;;5092853;28;20056;-79
2022/06/18 05:17:43;;;;;;;2.92;2.00;;;21.80;99.90;;;;;;5094227;28;20058;-80
2022/06/18 05:20:13;;;;;;;2.85;2.08;;;21.90;99.90;;;;;;5089317;28;20041;-79
2022/06/18 05:22:40;;;;;;;8.02;2.40;;;22.00;99.90;;;;;;5096938;28;20048;-79
2022/06/18 05:25:08;;;;;;;6.15;2.53;;;22.10;99.90;;;;;;5097983;28;20108;-79
2022/06/18 05:27:36;;;;;;;6.82;2.28;;;22.20;99.90;;;;;;5094536;28;20119;-79
2022/06/18 05:30:04;;;;;;;4.75;1.90;;;22.20;99.90;;;;;;5095241;28;20048;-80
2022/06/18 05:32:31;;;;;;;4.80;2.28;;;22.30;99.90;;;;;;5097100;28;20052;-82
2022/06/18 05:34:58;;;;;;;7.78;2.30;;;22.30;99.90;;;;;;5094412;28;20075;-80
2022/06/18 05:37:26;;;;;;;3.97;2.20;;;22.40;99.90;;;;;;5097108;28;20360;-79
2022/06/18 05:39:53;;;;;;;4.88;1.92;;;22.50;99.90;;;;;;5089882;28;20045;-80
2022/06/18 05:42:21;;;;;;;5.32;1.85;;;22.50;99.90;;;;;;5096927;28;20050;-80
2022/06/18 05:44:48;;;;;;;6.13;1.95;;;22.60;99.90;;;;;;5093631;28;20084;-80
2022/06/18 05:47:20;;;;;;;4.40;1.92;;;22.60;99.90;;;;;;5095466;28;20051;-80
2022/06/18 05:49:47;;;;;;;5.25;2.17;;;22.70;99.90;;;;;;5096794;28;20056;-78
2022/06/18 05:52:14;;;;;;;3.25;1.70;;;22.70;99.90;;;;;;5095020;28;20067;-78
2022/06/18 05:54:41;;;;;;;2.53;2.20;;;22.80;99.90;;;;;;5093718;28;20049;-80
2022/06/18 05:57:08;;;;;;;4.60;2.53;;;22.90;99.90;;;;;;5096332;28;20048;-81
2022/06/18 05:59:35;;;;;;;8.82;3.10;;;22.90;99.90;;;;;;5093064;28;20052;-79
2022/06/18 06:02:02;;;;;;;4.63;2.50;;;23.00;99.90;;;;;;5096077;28;20040;-79
2022/06/18 06:04:29;;;;;;;2.75;2.22;;;23.00;99.90;;;;;;5093982;28;20049;-81
2022/06/18 06:06:56;;;;;;;3.72;2.03;;;23.00;99.90;;;;;;5094724;28;20051;-79
2022/06/18 06:12:11;;;;;;;5.10;1.98;;;23.10;99.90;;;;;;5090468;28;20054;-79
2022/06/18 06:14:39;;;;;;;3.75;1.95;;;23.10;99.90;;;;;;5093607;28;20044;-80
2022/06/18 06:17:10;;;;;;;3.00;2.40;;;23.20;99.90;;;;;;5094261;28;20045;-78
2022/06/18 06:19:37;;;;;;;3.40;2.08;;;23.20;99.90;;;;;;5090431;28;20405;-79
2022/06/18 06:22:04;;;;;;;5.38;2.40;;;23.20;99.90;;;;;;5093380;28;20048;-77
2022/06/18 06:24:30;;;;;;;3.92;2.17;;;23.20;99.90;;;;;;5088832;28;20071;-79
2022/06/18 06:26:57;;;;;;;6.68;2.45;;;23.30;99.90;;;;;;5087378;28;20055;-80
2022/06/18 06:29:24;;;;;;;2.30;1.90;;;23.30;99.90;;;;;;5092965;28;20116;-79
2022/06/18 06:31:50;;;;;;;6.35;2.53;;;23.40;99.90;;;;;;5093334;28;20104;-80
2022/06/18 06:34:17;;;;;;;8.02;2.17;;;23.30;99.90;;;;;;5094927;28;20044;-79
2022/06/18 06:36:44;;;;;;;3.13;2.10;;;23.40;99.90;;;;;;5094340;28;20433;-79
2022/06/18 06:39:10;;;;;;;6.32;2.13;;;23.40;99.90;;;;;;5093447;28;20076;-79
2022/06/18 06:41:37;;;;;;;4.90;3.00;;;23.40;99.90;;;;;;5094695;28;20079;-79
2022/06/18 06:44:04;;;;;;;4.38;2.85;;;23.50;99.90;;;;;;5092132;28;20148;-80
2022/06/18 06:46:31;;;;;;;6.72;3.00;;;23.50;99.90;;;;;;5094701;28;20079;-79
2022/06/18 06:48:58;;;;;;;4.80;2.42;;;23.60;99.90;;;;;;5089887;28;20090;-78
2022/06/18 06:51:28;;;;;;;4.68;2.95;;;23.60;99.90;;;;;;5094977;28;20048;-80
2022/06/18 06:53:56;;;;;;;8.32;2.70;;;23.70;99.90;;;;;;5090259;28;20453;-78
2022/06/18 06:59:10;;;;;;;7.05;2.63;;;23.70;99.90;;;;;;5080766;28;20051;-80
2022/06/18 07:01:37;;;;;;;9.35;2.63;;;23.70;99.90;;;;;;5090347;28;20135;-77
2022/06/18 07:04:06;;;;;;;6.95;3.30;;;23.70;99.90;;;;;;5091025;28;20048;-80
2022/06/18 07:06:35;;;;;;;2.83;2.55;;;23.70;99.90;;;;;;5093597;28;20480;-78
2022/06/18 07:09:07;;;;;;;3.30;2.72;;;23.80;99.90;;;;;;5091357;28;20043;-80
2022/06/18 07:11:36;;;;;;;6.07;3.47;;;23.80;99.90;;;;;;5089617;28;20056;-80
2022/06/18 07:14:04;;;;;;;7.20;2.50;;;23.90;99.90;;;;;;5085345;28;20686;-78
2022/06/18 07:16:30;;;;;;;3.80;2.80;;;23.90;99.90;;;;;;5092665;28;20051;-79
2022/06/18 07:18:58;;;;;;;3.55;2.47;;;23.90;99.90;;;;;;5090134;28;20525;-78
2022/06/18 07:21:25;;;;;;;5.50;3.20;;;23.90;99.90;;;;;;5091388;28;20099;-79
2022/06/18 07:23:51;;;;;;;6.82;3.47;;;24.00;99.90;;;;;;5091080;28;20417;-78
2022/06/18 07:26:21;;;;;;;4.40;2.65;;;24.00;99.90;;;;;;5090495;28;20059;-78
2022/06/18 07:28:48;;;;;;;4.95;2.95;;;24.10;99.90;;;;;;5092471;28;20090;-79
2022/06/18 07:31:23;;;;;;;3.88;2.70;;;24.10;99.90;;;;;;5089144;28;20055;-80
2022/06/18 07:33:55;;;;;;;;;;;24.20;99.90;;;;;;5089147;28;20071;-80
2022/06/18 07:36:22;;;;;;;2.40;2.20;;;24.20;99.90;;;;;;5089586;28;19928;-80
2022/06/18 07:38:49;;;;;;;6.88;2.63;;;24.20;99.90;;;;;;5090764;28;20090;-79
2022/06/18 07:41:19;;;;;;;4.03;2.38;;;24.30;99.90;;;;;;5092261;28;20098;-79
2022/06/18 07:43:55;;;;;;;4.47;2.40;;;24.30;99.90;;;;;;5089936;28;20454;-79
2022/06/18 07:46:22;;;;;;;4.07;2.30;;;24.40;99.90;;;;;;5086777;28;20058;-80
2022/06/18 07:48:49;;;;;;;10.07;2.55;;;24.40;99.90;;;;;;5091083;28;20079;-79
2022/06/18 07:51:15;;;;;;;6.25;3.00;;;24.50;99.90;;;;;;5091159;28;20054;-81
2022/06/18 07:53:43;;;;;;;9.38;2.58;;;24.50;99.90;;;;;;5088835;28;20059;-80
2022/06/18 07:56:14;;;;;;;4.22;2.60;;;24.60;99.90;;;;;;5090450;28;20048;-79
2022/06/18 07:58:41;;;;;;;3.42;2.47;;;24.70;99.90;;;;;;5087027;28;20056;-78
2022/06/18 08:01:08;;;;;;;7.65;2.47;;;24.70;99.90;;;;;;5092363;28;20048;-79
2022/06/18 08:03:35;;;;;;;4.93;2.70;;;24.80;99.90;;;;;;5088947;28;20094;-80
2022/06/18 08:06:03;;;;;;;7.28;2.63;;;24.80;99.90;;;;;;5089809;28;20069;-79
2022/06/18 08:08:29;;;;;;;3.97;2.92;;;24.90;99.90;;;;;;5089921;28;20051;-81
2022/06/18 08:11:10;;;;;;;4.13;2.60;;;25.00;99.90;;;;;;5091503;28;20131;-79
2022/06/18 08:13:36;;;;;;;4.30;2.38;;;25.00;99.90;;;;;;5087234;28;20052;-79
2022/06/18 08:16:04;;;;;;;4.78;2.53;;;25.10;99.90;;;;;;5096252;28;20082;-79
2022/06/18 08:18:31;;;;;;;5.00;2.40;;;25.10;99.90;;;;;;5093907;28;20075;-79
2022/06/18 08:21:09;;;;;;;5.72;2.42;;;25.20;99.90;;;;;;5090455;28;20055;-79
2022/06/18 08:23:36;;;;;;;6.80;2.50;;;25.30;99.90;;;;;;5087457;28;20044;-80
2022/06/18 08:26:05;;;;;;;4.38;3.40;;;25.30;99.90;;;;;;5092505;28;20044;-79
2022/06/18 08:28:33;;;;;;;3.80;2.88;;;25.40;99.90;;;;;;5088511;28;20495;-79
2022/06/18 08:31:03;;;;;;;4.68;2.50;;;25.40;99.90;;;;;;5089421;28;20111;-79
2022/06/18 08:33:30;;;;;;;5.75;2.63;;;25.50;99.90;;;;;;5091115;28;20072;-81
2022/06/18 08:35:58;;;;;;;4.78;2.55;;;25.50;99.90;;;;;;5089510;28;20139;-78
2022/06/18 08:38:25;;;;;;;5.45;2.40;;;25.60;99.90;;;;;;5081873;28;20523;-78
2022/06/18 08:41:10;;;;;;;3.67;2.50;;;25.60;99.90;;;;;;5086074;28;20421;-78
2022/06/18 08:44:05;;;;;;;8.38;2.92;;;25.70;99.90;;;;;;5085083;28;20044;-78
2022/06/18 08:46:45;;;;;;;3.83;2.50;;;25.80;99.90;;;;;;5089793;28;20110;-79
2022/06/18 08:49:18;;;;;;;;;;;25.80;99.90;;;;;;5080094;28;20044;-77
2022/06/18 08:52:04;;;;;;;4.57;2.33;;;25.90;99.90;;;;;;5089107;28;19938;-80
2022/06/18 08:54:57;;;;;;;4.15;2.50;;;26.00;99.90;;;;;;5089479;28;20067;-79
2022/06/18 08:57:53;;;;;;;2.83;2.63;;;26.00;99.90;;;;;;5090163;28;20401;-80
2022/06/18 09:00:45;;;;;;;5.43;2.78;;;26.10;99.90;;;;;;5089421;28;20056;-81
2022/06/18 09:03:41;;;;;;;4.72;2.30;;;26.20;99.90;;;;;;5088602;28;20502;-78
2022/06/18 09:06:24;;;;;;;4.53;2.38;;;26.30;99.90;;;;;;5087089;28;20044;-79
2022/06/18 09:08:54;;;;;;;3.78;2.42;;;26.40;99.90;;;;;;5100778;28;20048;-79
2022/06/18 09:11:50;;;;;;;4.85;2.10;;;26.40;99.90;;;;;;5094173;28;20048;-81
2022/06/18 09:14:28;;;;;;;5.03;2.50;;;26.40;99.90;;;;;;5092833;28;20054;-81
2022/06/18 09:17:05;;;;;;;4.38;2.25;;;26.50;99.90;;;;;;5093628;28;20052;-79
2022/06/18 09:19:35;;;;;;;6.78;2.50;;;26.60;99.90;;;;;;5092921;28;20109;-79
2022/06/18 09:22:09;;;;;;;4.53;2.58;;;26.80;99.90;;;;;;5096082;28;20490;-79
2022/06/18 09:24:42;;;;;;;8.32;2.17;;;26.80;99.90;;;;;;5097900;28;20044;-80
2022/06/18 09:27:26;;;;;;;5.85;3.25;;;26.90;99.90;;;;;;5092708;28;20044;-80
2022/06/18 09:30:06;;;;;;;6.22;2.67;;;26.90;99.90;;;;;;5093982;28;20473;-80
2022/06/18 09:32:58;;;;;;;5.18;2.30;;;27.00;99.90;;;;;;5094127;28;20052;-80
2022/06/18 09:35:35;;;;;;;7.07;3.03;;;27.00;99.90;;;;;;5092789;28;20063;-79
2022/06/18 09:38:53;;;;;;;7.97;2.65;;;27.10;99.90;;;;;;5094812;28;20053;-79
2022/06/18 09:41:30;;;;;;;7.10;2.60;;;27.20;99.90;;;;;;5077076;28;20050;-80
2022/06/18 09:44:07;;;;;;;7.07;2.50;;;27.20;99.90;;;;;;5088270;28;20147;-79
2022/06/18 09:46:44;;;;;;;4.25;2.17;;;27.30;99.90;;;;;;5094804;28;20108;-79
2022/06/18 09:49:11;;;;;;;4.93;2.30;;;27.40;99.90;;;;;;5088725;28;20045;-79
2022/06/18 09:51:38;;;;;;;9.43;2.33;;;27.50;99.90;;;;;;5095640;28;20047;-79
2022/06/18 09:54:07;;;;;;;3.80;1.90;;;27.50;99.90;;;;;;5093598;28;20080;-79
2022/06/18 09:56:41;;;;;;;2.85;1.92;;;27.70;99.90;;;;;;5095549;28;20052;-79
2022/06/18 09:59:20;;;;;;;6.25;2.03;;;27.70;99.90;;;;;;5095759;28;20040;-79
2022/06/18 10:01:52;;;;;;;2.65;2.35;;;27.80;99.90;;;;;;5090371;28;20045;-80
2022/06/18 10:07:17;;;;;;;5.97;1.80;;;27.90;99.90;;;;;;5093452;28;20076;-79
2022/06/18 10:09:55;;;;;;;3.20;1.98;;;28.00;99.90;;;;;;5092906;28;20116;-80
2022/06/18 10:12:23;;;;;;;2.15;1.60;;;28.00;99.90;;;;;;5089503;28;20067;-80
2022/06/18 10:14:56;;;;;;;4.82;1.80;;;28.00;99.90;;;;;;5093635;28;20058;-79
2022/06/18 10:17:35;;;;;;;4.43;1.92;;;28.00;99.90;;;;;;5095685;28;20044;-80
2022/06/18 10:20:16;;;;;;;6.07;1.80;;;28.00;99.90;;;;;;5090507;28;20111;-81
2022/06/18 10:23:23;;;;;;;6.55;1.60;;;28.20;99.90;;;;;;5093067;28;20052;-79
2022/06/18 10:26:32;;;;;;;6.35;1.83;;;28.20;99.90;;;;;;5087427;28;20104;-80
2022/06/18 10:29:05;;;;;;;4.32;2.25;;;28.30;99.90;;;;;;5093202;28;20044;-80
2022/06/18 10:32:15;;;;;;;2.15;1.77;;;28.30;99.90;;;;;;5090045;28;20139;-81
2022/06/18 10:34:52;;;;;;;4.95;2.15;;;28.40;99.90;;;;;;5095148;28;20069;-82
2022/06/18 10:37:40;;;;;;;3.25;2.08;;;28.40;99.90;;;;;;5090514;28;20054;-80
2022/06/18 10:40:52;;;;;;;5.72;2.03;;;28.40;99.90;;;;;;5092510;28;20058;-82
2022/06/18 10:43:23;;;;;;;4.53;2.20;;;28.40;99.90;;;;;;5098458;28;20051;-79
2022/06/18 10:46:17;;;;;;;5.60;2.13;;;28.50;99.90;;;;;;5097424;28;20131;-81
2022/06/18 10:48:49;;;;;;;2.90;1.92;;;28.50;99.90;;;;;;5088837;28;20052;-82
2022/06/18 10:51:21;;;;;;;4.03;2.05;;;28.50;99.90;;;;;;5096774;28;20052;-81
2022/06/18 10:53:51;;;;;;;3.63;2.15;;;28.60;99.90;;;;;;5093843;28;20055;-82
2022/06/18 10:56:24;;;;;;;3.45;2.03;;;28.70;99.90;;;;;;5096942;28;20127;-81
2022/06/18 10:59:02;;;;;;;6.82;2.30;;;28.70;99.90;;;;;;5089980;28;20087;-82
2022/06/18 11:01:31;;;;;;;5.75;2.08;;;28.80;99.90;;;;;;5094946;28;20083;-83
2022/06/18 11:04:16;;;;;;;5.80;1.75;;;28.80;99.90;;;;;;5097005;28;20044;-80
2022/06/18 11:06:54;;;;;;;4.70;2.17;;;28.90;99.90;;;;;;5091535;28;20513;-81
2022/06/18 11:09:33;;;;;;;4.50;1.77;;;29.00;99.90;;;;;;5093953;28;20064;-82
2022/06/18 11:12:05;;;;;;;4.68;2.40;;;29.10;99.90;;;;;;5091934;28;20516;-80
2022/06/18 11:14:42;;;;;;;4.53;1.98;;;29.10;99.90;;;;;;5093958;28;20058;-81
2022/06/18 11:17:43;;;;;;;4.40;2.17;;;29.10;99.90;;;;;;5090620;28;20107;-81
2022/06/18 11:20:19;;;;;;;4.18;1.90;;;29.30;99.90;;;;;;5090090;28;20461;-82
2022/06/18 11:22:52;;;;;;;3.55;1.83;;;29.30;99.90;;;;;;5093584;28;20100;-82
2022/06/18 11:25:49;;;;;;;3.17;1.88;;;29.40;99.90;;;;;;5090195;28;20049;-81
2022/06/18 11:28:28;;;;;;;4.15;2.05;;;29.40;99.90;;;;;;5090663;28;20041;-81
2022/06/18 11:30:55;;;;;;;5.82;2.13;;;29.50;99.90;;;;;;5092991;28;20068;-81
2022/06/18 11:33:30;;;;;;;8.98;2.50;;;29.50;99.90;;;;;;5097050;28;20083;-81
2022/06/18 11:35:57;;;;;;;4.25;2.20;;;29.50;99.90;;;;;;5091619;28;20074;-81
2022/06/18 11:38:32;;;;;;;5.20;1.77;;;29.60;99.90;;;;;;5094203;28;20047;-82
2022/06/18 11:41:23;;;;;;;9.15;2.50;;;29.70;99.90;;;;;;5095613;28;20122;-81
2022/06/18 11:44:02;;;;;;;3.78;2.00;;;29.70;99.90;;;;;;5073104;28;20079;-81
2022/06/18 11:46:57;;;;;;;4.28;2.10;;;29.90;99.90;;;;;;5091024;28;20048;-82
2022/06/18 11:49:42;;;;;;;8.52;2.67;;;30.00;99.90;;;;;;5090994;28;20525;-81
2022/06/18 11:52:31;;;;;;;7.07;2.47;;;30.10;99.90;;;;;;5087090;28;20121;-80
2022/06/18 11:55:32;;;;;;;4.63;2.25;;;30.20;99.90;;;;;;5093123;28;20135;-82
2022/06/18 11:58:24;;;;;;;4.25;2.60;;;30.10;99.90;;;;;;5088377;28;20427;-81
2022/06/18 12:01:10;;;;;;;5.15;2.35;;;30.20;99.90;;;;;;5089861;28;20423;-81
2022/06/18 12:03:51;;;;;;;6.28;2.38;;;30.20;99.90;;;;;;5096184;28;20071;-82
2022/06/18 12:06:40;;;;;;;5.88;2.70;;;30.30;99.90;;;;;;5092978;28;20060;-83
2022/06/18 12:09:26;;;;;;;2.95;2.22;;;30.40;99.90;;;;;;5095394;28;20049;-82
2022/06/18 12:12:20;;;;;;;4.75;2.35;;;30.50;99.90;;;;;;5072147;28;20060;-81
2022/06/18 12:14:50;;;;;;;7.50;2.75;;;30.50;99.90;;;;;;5089406;28;20048;-81
2022/06/18 12:17:32;;;;;;;5.20;2.70;;;30.50;99.90;;;;;;5094361;28;20048;-81
2022/06/18 12:20:13;;;;;;;5.10;2.22;;;30.60;99.90;;;;;;5094179;28;20138;-80
2022/06/18 12:23:12;;;;;;;6.22;2.30;;;30.60;99.90;;;;;;5092408;28;20045;-81
2022/06/18 12:25:42;;;;;;;17.80;3.00;;;30.70;99.90;;;;;;5094573;28;20056;-82
2022/06/18 12:28:30;;;;;;;6.15;2.50;;;30.70;99.90;;;;;;5091216;28;20044;-81
2022/06/18 12:31:02;;;;;;;8.50;2.40;;;30.70;99.90;;;;;;5092319;28;20062;-81
2022/06/18 12:34:05;;;;;;;5.45;2.30;;;30.80;99.90;;;;;;5086513;28;20083;-79
2022/06/18 12:37:02;;;;;;;7.20;2.20;;;30.80;99.90;;;;;;5089289;28;20053;-82
2022/06/18 12:40:01;;;;;;;3.97;2.40;;;30.80;99.90;;;;;;5092006;28;20049;-81
2022/06/18 12:42:41;;;;;;;6.65;2.78;;;30.90;99.90;;;;;;5091431;28;20099;-79
2022/06/18 12:45:11;;;;;;;;;;;30.90;99.90;;;;;;5089198;28;20044;-81
2022/06/18 12:47:55;;;;;;;6.60;2.28;;;31.00;99.90;;;;;;5091214;28;20159;-81
2022/06/18 12:50:47;;;;;;;5.50;2.28;;;31.10;99.90;;;;;;5088913;28;20139;-81
2022/06/18 12:53:31;;;;;;;6.40;2.60;;;31.10;99.90;;;;;;5089079;28;20051;-80
2022/06/18 12:56:25;;;;;;;5.95;2.45;;;31.20;99.90;;;;;;5094838;28;20071;-80
2022/06/18 12:59:02;;;;;;;10.52;2.33;;;31.20;99.90;;;;;;5098029;28;20635;-79
2022/06/18 13:01:44;;;;;;;5.28;2.25;;;31.30;99.90;;;;;;5091954;28;20053;-81
2022/06/18 13:04:21;;;;;;;8.57;2.58;;;31.30;99.90;;;;;;5095055;28;20074;-82
2022/06/18 13:06:50;;;;;;;4.78;2.22;;;31.50;99.90;;;;;;5092570;28;20050;-82
2022/06/18 13:09:41;;;;;;;4.97;2.50;;;31.40;99.90;;;;;;5095512;28;20044;-81
2022/06/18 13:12:27;;;;;;;7.05;2.10;;;31.50;99.90;;;;;;5093813;28;20053;-82
2022/06/18 13:15:27;;;;;;;9.15;2.25;;;31.50;99.90;;;;;;5091101;28;20067;-80
2022/06/18 13:18:06;;;;;;;11.20;1.88;;;31.60;99.90;;;;;;5089295;28;20044;-81
2022/06/18 13:20:41;;;;;;;4.88;2.15;;;31.70;99.90;;;;;;5089996;28;20052;-81
2022/06/18 13:29:05;;;;;;;12.80;2.55;;;31.80;99.90;;;;;;5090875;28;20108;-82
2022/06/18 13:31:38;;;;;;;12.15;2.20;;;31.80;99.90;;;;;;5095540;28;20052;-81
2022/06/18 13:34:14;;;;;;;9.80;2.20;;;31.80;99.90;;;;;;5093094;28;20472;-82
2022/06/18 13:37:08;;;;;;;12.23;2.92;;;31.90;99.90;;;;;;5096970;28;20116;-82
2022/06/18 13:39:51;;;;;;;11.98;2.58;;;31.90;99.90;;;;;;5095683;28;20062;-81
2022/06/18 13:42:56;;;;;;;14.13;2.75;;;32.00;99.90;;;;;;5094107;28;20051;-81